^^
Station Historical Data
Daily Summary for January 19, 2018 Units:  English    Metric   Both
« Previous Day
Next Day »
Daily Weekly Monthly Yearly Custom
  High: Low: Average:
Temperature: TemperatureF °F 73.6 °F 80.9 °F
Dew Point: DewpointF °F 45.7 °F 47.2 °F
Humidity: Humidity% 24% 31%
Wind Speed: WindSpeedMPHmph 0.0mph 7.4mph
Wind Gust: WindSpeedGustMPHmph - -
Wind- - SSE
Pressure: PressureIn in 29.46 in -
Precipitation: 0.00 in    
Historical Graphs
 
 
Tabular Data for January 19, 2018
Time Temperature Dew Point Pressure Wind Wind Speed Wind Gust Humidity Rainfall Rate (Hourly) solar Conditions
TemperatureF °F DewpointF °F PressureIn in Calm     Humidity% HourlyPrecipIn in SoftwareType W/m2 Conditions
08:52 73.6 °F 48.4 °F 29.64 in North 10.1 mph 15.0 mph 41% 0.00 in meteobridge W/m2
08:59 74.1 °F 48.2 °F 29.62 in North 12.1 mph 15.0 mph 40% 0.00 in meteobridge W/m2
09:05 73.8 °F 48.0 °F 29.62 in NW 13.0 mph 17.0 mph 40% 0.00 in meteobridge W/m2
09:11 73.9 °F 48.0 °F 29.63 in West 6.9 mph 21.0 mph 40% 0.00 in meteobridge W/m2
09:17 74.5 °F 47.1 °F 29.63 in NNE 21.0 mph 25.0 mph 38% 0.00 in meteobridge W/m2
09:23 74.8 °F 47.5 °F 29.62 in North 8.9 mph 28.0 mph 38% 0.00 in meteobridge W/m2
09:29 75.0 °F 46.9 °F 29.63 in North 17.9 mph 29.0 mph 37% 0.00 in meteobridge W/m2
09:35 75.4 °F 47.3 °F 29.63 in NNW 21.0 mph 26.0 mph 37% 0.00 in meteobridge W/m2
09:41 75.6 °F 46.8 °F 29.64 in North 17.9 mph 28.0 mph 36% 0.00 in meteobridge W/m2
09:47 76.1 °F 47.1 °F 29.63 in NW 14.1 mph 22.0 mph 36% 0.00 in meteobridge W/m2
09:53 76.5 °F 46.8 °F 29.63 in NNE 15.0 mph 24.0 mph 35% 0.00 in meteobridge W/m2
09:59 76.6 °F 46.9 °F 29.64 in NNW 17.0 mph 28.0 mph 35% 0.00 in meteobridge W/m2
10:05 76.8 °F 47.1 °F 29.64 in North 14.1 mph 18.0 mph 35% 0.00 in meteobridge W/m2
10:12 77.2 °F 46.6 °F 29.63 in NNW 19.9 mph 29.0 mph 34% 0.00 in meteobridge W/m2
10:18 77.2 °F 46.6 °F 29.63 in North 23.0 mph 24.0 mph 34% 0.00 in meteobridge W/m2
10:24 77.2 °F 46.6 °F 29.63 in NNW 11.0 mph 20.0 mph 34% 0.00 in meteobridge W/m2
10:30 77.5 °F 46.9 °F 29.63 in NNE 14.1 mph 22.0 mph 34% 0.00 in meteobridge W/m2
10:52 79.3 °F 47.7 °F 29.63 in NNW 16.1 mph 19.0 mph 33% 0.00 in meteobridge W/m2
10:58 79.3 °F 47.7 °F 29.63 in North 4.0 mph 18.0 mph 33% 0.00 in meteobridge W/m2
11:04 79.5 °F 47.1 °F 29.63 in North 4.9 mph 15.0 mph 32% 0.00 in meteobridge W/m2
11:10 79.5 °F 47.1 °F 29.63 in NNW 4.0 mph 12.0 mph 32% 0.00 in meteobridge W/m2
11:16 79.5 °F 47.8 °F 29.62 in NNW 11.0 mph 20.0 mph 33% 0.00 in meteobridge W/m2
11:22 80.1 °F 47.5 °F 29.62 in North 11.0 mph 27.0 mph 32% 0.00 in meteobridge W/m2
11:46 81.3 °F 47.8 °F 29.61 in NNW 6.0 mph 15.0 mph 31% 0.00 in meteobridge W/m2
11:53 81.0 °F 48.4 °F 29.60 in NE 4.9 mph 16.0 mph 32% 0.00 in meteobridge W/m2
11:59 82.4 °F 48.7 °F 29.60 in North 10.1 mph 15.0 mph 31% 0.00 in meteobridge W/m2
12:05 82.8 °F 48.2 °F 29.60 in Calm   14.0 mph 30% 0.00 in meteobridge W/m2
12:11 82.9 °F 48.4 °F 29.60 in North 11.0 mph 19.0 mph 30% 0.00 in meteobridge W/m2
12:17 82.2 °F 47.7 °F 29.59 in NNE 8.9 mph 15.0 mph 30% 0.00 in meteobridge W/m2
12:23 82.0 °F 48.4 °F 29.59 in SSE 6.0 mph 12.0 mph 31% 0.00 in meteobridge W/m2
12:29 84.0 °F 49.3 °F 29.59 in North 11.0 mph 13.0 mph 30% 0.00 in meteobridge W/m2
12:35 84.2 °F 48.6 °F 29.58 in North 17.9 mph 18.0 mph 29% 0.00 in meteobridge W/m2
12:42 84.2 °F 48.6 °F 29.58 in ENE 2.0 mph 7.0 mph 29% 0.00 in meteobridge W/m2
12:48 84.0 °F 48.4 °F 29.58 in NE 11.0 mph 14.0 mph 29% 0.00 in meteobridge W/m2
12:54 84.0 °F 48.4 °F 29.57 in NNE 11.0 mph 13.0 mph 29% 0.00 in meteobridge W/m2
13:00 84.7 °F 48.9 °F 29.57 in NNE 10.1 mph 13.0 mph 29% 0.00 in meteobridge W/m2
13:06 84.4 °F 48.7 °F 29.58 in North 4.9 mph 7.0 mph 29% 0.00 in meteobridge W/m2
13:12 83.1 °F 47.7 °F 29.57 in North 10.1 mph 10.1 mph 29% 0.00 in meteobridge W/m2
13:18 84.7 °F 48.0 °F 29.57 in North 2.9 mph 7.0 mph 28% 0.00 in meteobridge W/m2
13:24 86.5 °F 48.6 °F 29.57 in South 2.9 mph 3.0 mph 27% 0.00 in meteobridge W/m2
13:30 87.1 °F 48.0 °F 29.56 in Calm   9.0 mph 26% 0.00 in meteobridge W/m2
13:37 87.4 °F 48.4 °F 29.56 in West 2.0 mph 7.0 mph 26% 0.00 in meteobridge W/m2
13:43 88.0 °F 48.7 °F 29.55 in NNE 11.0 mph 19.0 mph 26% 0.00 in meteobridge W/m2
13:49 85.1 °F 47.3 °F 29.55 in NNE 6.0 mph 12.0 mph 27% 0.00 in meteobridge W/m2
13:55 83.5 °F 46.9 °F 29.55 in North 8.9 mph 11.0 mph 28% 0.00 in meteobridge W/m2
14:01 82.8 °F 46.4 °F 29.55 in NNW 11.0 mph 14.0 mph 28% 0.00 in meteobridge W/m2
14:07 82.6 °F 47.1 °F 29.55 in Calm   6.0 mph 29% 0.00 in meteobridge W/m2
14:13 82.4 °F 46.0 °F 29.55 in South 2.9 mph 5.0 mph 28% 0.00 in meteobridge W/m2
14:20 82.4 °F 46.0 °F 29.54 in Calm   4.0 mph 28% 0.00 in meteobridge W/m2
14:26 82.9 °F 47.5 °F 29.54 in ESE 4.9 mph 7.0 mph 29% 0.00 in meteobridge W/m2
14:32 83.1 °F 47.7 °F 29.54 in NNW 6.9 mph 14.0 mph 29% 0.00 in meteobridge W/m2
14:38 82.9 °F 47.5 °F 29.54 in Calm   5.0 mph 29% 0.00 in meteobridge W/m2
14:44 82.6 °F 47.1 °F 29.54 in NNE 6.0 mph 7.0 mph 29% 0.00 in meteobridge W/m2
14:50 82.8 °F 48.2 °F 29.53 in NNE 4.9 mph 5.0 mph 30% 0.00 in meteobridge W/m2
14:56 82.8 °F 47.3 °F 29.53 in North 2.9 mph 3.0 mph 29% 0.00 in meteobridge W/m2
15:02 83.1 °F 46.6 °F 29.53 in NNE 2.9 mph 7.0 mph 28% 0.00 in meteobridge W/m2
15:08 83.7 °F 47.1 °F 29.52 in Calm   7.0 mph 28% 0.00 in meteobridge W/m2
15:14 83.5 °F 46.9 °F 29.52 in Calm   4.0 mph 28% 0.00 in meteobridge W/m2
15:20 83.7 °F 47.1 °F 29.52 in SSW 2.0 mph 7.0 mph 28% 0.00 in meteobridge W/m2
15:26 83.8 °F 47.3 °F 29.51 in Calm   3.0 mph 28% 0.00 in meteobridge W/m2
15:33 84.6 °F 46.9 °F 29.51 in NNW 11.0 mph 11.0 mph 27% 0.00 in meteobridge W/m2
15:39 85.6 °F 47.8 °F 29.51 in SE 4.0 mph 5.0 mph 27% 0.00 in meteobridge W/m2
15:45 87.3 °F 48.2 °F 29.50 in South 6.0 mph 7.0 mph 26% 0.00 in meteobridge W/m2
15:51 88.2 °F 47.8 °F 29.50 in Calm     25% 0.00 in meteobridge W/m2
15:57 88.9 °F 47.5 °F 29.49 in Calm   6.0 mph 24% 0.00 in meteobridge W/m2
16:18 87.4 °F 47.3 °F 29.48 in SE 2.9 mph 9.0 mph 25% 0.00 in meteobridge W/m2
16:24 87.3 °F 47.1 °F 29.47 in ESE 2.0 mph 3.0 mph 25% 0.00 in meteobridge W/m2
16:30 88.2 °F 46.8 °F 29.47 in ESE 2.9 mph 3.0 mph 24% 0.00 in meteobridge W/m2
16:36 87.3 °F 47.1 °F 29.47 in ESE 0.9 mph 10.0 mph 25% 0.00 in meteobridge W/m2
16:42 87.4 °F 47.3 °F 29.46 in North 6.9 mph 7.0 mph 25% 0.00 in meteobridge W/m2
16:48 86.5 °F 46.6 °F 29.47 in NNW 12.1 mph 13.0 mph 25% 0.00 in meteobridge W/m2
16:54 84.9 °F 46.2 °F 29.47 in North 6.9 mph 11.0 mph 26% 0.00 in meteobridge W/m2
17:01 85.6 °F 46.8 °F 29.47 in NNE 0.9 mph 1.0 mph 26% 0.00 in meteobridge W/m2
17:07 85.8 °F 46.9 °F 29.46 in North 4.0 mph 6.0 mph 26% 0.00 in meteobridge W/m2
17:13 85.5 °F 45.7 °F 29.47 in North 2.9 mph 7.0 mph 25% 0.00 in meteobridge W/m2
17:19 84.7 °F 46.0 °F 29.47 in ENE 4.0 mph 6.0 mph 26% 0.00 in meteobridge W/m2
17:25 83.3 °F 47.7 °F 29.47 in South 10.1 mph 12.0 mph 29% 0.00 in meteobridge W/m2
17:31 81.9 °F 48.2 °F 29.47 in South 2.0 mph 6.0 mph 31% 0.00 in meteobridge W/m2
17:37 81.5 °F 48.0 °F 29.47 in SE 6.0 mph 9.0 mph 31% 0.00 in meteobridge W/m2
17:43 81.1 °F 47.7 °F 29.48 in SE 4.0 mph 4.0 mph 31% 0.00 in meteobridge W/m2
17:49 80.8 °F 47.3 °F 29.47 in SE 14.1 mph 17.0 mph 31% 0.00 in meteobridge W/m2
18:08 77.2 °F 53.6 °F 29.49 in NE 11.0 mph 16.0 mph 44% 0.00 in meteobridge W/m2
18:14 75.4 °F 52.5 °F 29.50 in ENE 2.9 mph 3.0 mph 45% 0.00 in meteobridge W/m2
18:20 75.4 °F 52.5 °F 29.51 in ENE 2.9 mph -999.0 mph 45% 0.00 in meteobridge W/m2
18:26 75.4 °F 52.5 °F 29.52 in ENE 2.9 mph -999.0 mph 45% 0.00 in meteobridge W/m2
Regenstein, Windhoek, Namibia
Compliments of Weather Underground - 2.5 mb